Hoffman, MN (56339)

6:00 AM CST on December 11, 2016 (GMT -0600)
Hoffman MN | | Change Station

Elev 1240 ft 45.83 °N, 95.78 °W | Updated 3 minutes ago

Light Snow
Light Snow
11.1 °F
Feels Like 11.1 °F
N
0.0
Wind Variable Wind from North
Gusts 0.0 mph

Today
High -- | Low -- °F
--% Chance of Precip.
Yesterday
High -- | Low -- °F
Precip. -- in
Pressure 29.98 in
Visibility 1.5 miles
Clouds Overcast 1400 ft
Dew Point 4.2 °F
Humidity 73%
Rainfall 0.00 in
Snow Depth Not available.
7:54 AM 4:38 PM
Waxing Gibbous, 91% visible
METAR KY63 111158Z AUTO 05007KT 030V100 1 1/2SM -SN OVC014 M12/M13 A2998 RMK AO2 T11181134
Pressure 29.98 in
Visibility 1.5 miles
Clouds Overcast 1400 ft
Dew Point 4.2 °F
Humidity 73%
Rainfall 0.00 in
Snow Depth Not available.
7:54 AM 4:38 PM
Waxing Gibbous, 91% visible
METAR KY63 111158Z AUTO 05007KT 030V100 1 1/2SM -SN OVC014 M12/M13 A2998 RMK AO2 T11181134

10-Day Weather Forecast

Almanac

Astronomy

Dec. 11, 2016 Rise Set
Actual Time
Civil Twilight
Nautical Twilight
Astronomical Twilight
Moon
Length of Visible Light
Length of Day
Tomorrow will be .
, % of the Moon is Illuminated

Today's Extremes

State Highs State Lows

Community

WunderPhotos

Upload Photos

1,956,710 photos uploaded!

WunderBlog® & News

Nearby

Air Quality

  Air Quality AQ Index Pollutant
Not available.

Snow Depth

Station Depth Elevation

Earthquake Activity

City Distance Mag. Time & Date
Minimum magnitude displayed is 2.5.

Coastal Water Temperatures

Place Temperature

Stations

Nearby Weather Stations

Station Location Temp. Windchill Dew Point Humidity Wind Precip. Elev Updated Type
                   

Watches & Warnings

There are currently no watches in effect.